ROMMA est une association bénévole à but non lucratif. Votre soutien est indispensable : ADHERER à ROMMA ou FAIRE un DON

Le Versoud - (38, Isère)

Vallée du Grésivaudan (220 m)   Longitude: 05° 51' 44" E   Latitude: 45° 13' 06" N Station partenaire n°6
 

Détail journalier du     <<     >>

Température Humidité Pression Vent Dir Rafale Dir. rafale Ensol.
Heure (°C) (%) (hPa) (km/h) (km/h) (min)
01:00 21.268101600---0
02:00 20.767101600---0
03:00 19.678101600---0
04:00 19.678101600---0
05:00 19.771101600---0
06:00 19.181101600---0
07:00 19.379101600---0
08:00 19.972101700---0
09:00 19.872101700---0
10:00 20.766101702NNO0
11:00 22.062101705NO0
12:00 22.858101708NNE40
13:00 24.5531016011SSE55
14:00 25.15010161OSO13OSO55
15:00 25.25210151SO15S60
16:00 26.448101506ONO50
17:00 26.547101506N60
18:00 26.747101408NO60
19:00 26.7481014010NO60
20:00 25.65010152N18N60
21:00 23.6551015011N40
22:00 21.662101606NNE0
23:00 20.371101700---0
minuit 19.468101700---0

Graphique du 31-07-2019

 

Serveur OMMA